Time;durP1;ratioP1;P1;durP2;ratioP2;P2;SDS_P1;SDS_P2;PMS_P1;PMS_P2;Temp;Humidity;BMP_temperature;BMP_pressure;BME280_temperature;BME280_humidity;BME280_pressure;Samples;Min_cycle;Max_cycle;Signal;HPM_P1;HPM_P2
2022/01/23 00:00:37;;;;;;;20.40;7.45;;;;;;;0.74;69.75;102412.50;1790829;78;21615;-79
2022/01/23 00:03:10;;;;;;;16.50;7.47;;;;;;;0.75;69.76;102419.13;1816606;78;21476;-79
2022/01/23 00:05:37;;;;;;;16.25;7.60;;;;;;;0.77;69.72;102416.69;1816659;78;21456;-79
2022/01/23 00:08:03;;;;;;;15.10;7.17;;;;;;;0.76;69.66;102420.93;1816638;77;21061;-79
2022/01/23 00:10:29;;;;;;;16.32;7.15;;;;;;;0.76;69.63;102422.63;1816889;78;22693;-79
2022/01/23 00:13:08;;;;;;;16.57;7.87;;;;;;;0.77;69.69;102432.23;1816921;77;21772;-79
2022/01/23 00:18:09;;;;;;;14.55;6.50;;;;;;;0.82;69.70;102431.34;1816947;78;21006;-79
2022/01/23 00:20:36;;;;;;;15.50;6.30;;;;;;;0.84;69.68;102423.31;1816833;77;21010;-79
2022/01/23 00:23:12;;;;;;;14.55;6.00;;;;;;;0.87;69.60;102428.80;1816654;78;21700;-79
2022/01/23 00:31:01;;;;;;;12.25;6.55;;;;;;;0.87;69.44;102430.09;1816550;78;21037;-79
2022/01/23 00:33:27;;;;;;;14.25;5.58;;;;;;;0.88;69.47;102434.13;1816801;78;21045;-78
2022/01/23 00:35:54;;;;;;;17.35;7.50;;;;;;;0.89;69.45;102434.63;1816559;77;21725;-79
2022/01/23 00:38:24;;;;;;;11.40;5.85;;;;;;;0.90;69.41;102436.83;1816704;78;21552;-78
2022/01/23 00:40:50;;;;;;;11.68;5.92;;;;;;;0.89;69.22;102439.81;1816771;78;21586;-79
2022/01/23 00:43:26;;;;;;;12.60;6.28;;;;;;;0.87;69.32;102432.69;1816278;78;21010;-79
2022/01/23 00:45:47;;;;;;;15.10;6.55;;;;;;;0.89;69.33;102420.37;1816194;78;21040;-79
2022/01/23 00:48:16;;;;;;;13.75;6.53;;;;;;;0.90;69.35;102417.38;1816548;78;21069;-78
2022/01/23 00:50:44;;;;;;;11.78;5.85;;;;;;;0.94;69.38;102426.89;1816451;78;21049;-78
2022/01/23 00:53:12;;;;;;;13.98;5.90;;;;;;;0.93;69.23;102425.45;1816688;78;21053;-79
2022/01/23 00:55:45;;;;;;;15.50;6.78;;;;;;;0.97;69.27;102432.73;1816909;78;21026;-79
2022/01/23 00:58:12;;;;;;;15.13;6.30;;;;;;;0.99;69.22;102435.47;1816998;77;21116;-79
2022/01/23 01:00:42;;;;;;;12.58;5.35;;;;;;;1.00;69.22;102434.31;1815880;78;21029;-78
2022/01/23 01:03:08;;;;;;;11.22;5.72;;;;;;;1.03;69.22;102438.46;1816427;78;21026;-79
2022/01/23 01:05:35;;;;;;;14.75;6.70;;;;;;;1.04;69.15;102448.08;1816495;78;21745;-79
2022/01/23 01:08:03;;;;;;;15.75;6.53;;;;;;;1.04;69.20;102432.52;1816439;78;21143;-80
2022/01/23 01:10:46;;;;;;;12.20;5.55;;;;;;;1.05;69.21;102422.69;1816306;78;21060;-80
2022/01/23 01:13:00;;;;;;;17.20;6.08;;;;;;;1.11;69.22;102434.90;1813934;78;21859;-79
2022/01/23 01:15:35;;;;;;;16.07;6.20;;;;;;;1.12;69.25;102439.69;1816369;78;21037;-79
2022/01/23 01:31:34;;;;;;;14.43;6.67;;;;;;;1.18;68.98;102435.44;1816701;77;21037;-79
2022/01/23 01:34:11;;;;;;;16.32;6.50;;;;;;;1.18;68.90;102435.44;1816218;78;21403;-79
2022/01/23 01:39:10;;;;;;;18.62;6.90;;;;;;;1.15;68.84;102436.98;1816266;78;22578;-79
2022/01/23 01:41:39;;;;;;;16.80;7.47;;;;;;;1.16;68.83;102434.00;1816168;78;21118;-79
2022/01/23 01:44:05;;;;;;;17.65;6.35;;;;;;;1.19;68.78;102435.98;1816202;77;21033;-78
2022/01/23 01:46:32;;;;;;;15.53;6.65;;;;;;;1.19;68.74;102442.07;1816175;78;21638;-79
2022/01/23 01:48:59;;;;;;;14.70;6.60;;;;;;;1.18;68.70;102441.53;1816545;78;21022;-78
2022/01/23 01:51:30;;;;;;;15.60;6.33;;;;;;;1.17;68.68;102437.13;1816483;78;22437;-78
2022/01/23 01:54:02;;;;;;;12.20;6.15;;;;;;;1.15;68.61;102443.47;1816597;77;21375;-79
2022/01/23 01:56:23;;;;;;;15.13;6.30;;;;;;;1.14;68.60;102446.83;1816880;78;20995;-79
2022/01/23 02:09:44;;;;;;;18.82;6.20;;;;;;;1.21;68.55;102436.63;1816182;78;21026;-79
2022/01/23 02:17:38;;;;;;;13.15;5.97;;;;;;;1.18;68.42;102428.56;1816298;78;21730;-78
2022/01/23 02:22:59;;;;;;;14.70;6.12;;;;;;;1.23;68.46;102433.78;1816692;77;21130;-77
2022/01/23 02:53:12;;;;;;;10.68;5.90;;;;;;;1.39;68.47;102459.44;1816328;78;21065;-79
2022/01/23 02:55:16;;;;;;;9.65;4.75;;;;;;;1.42;68.45;102464.88;1815672;78;21064;-78
2022/01/23 03:00:16;;;;;;;12.15;5.22;;;;;;;1.43;68.39;102471.00;1816299;78;21543;-79
2022/01/23 03:02:49;;;;;;;12.75;5.33;;;;;;;1.43;68.31;102474.49;1816509;77;21665;-78
2022/01/23 03:05:23;;;;;;;15.55;5.37;;;;;;;1.43;68.23;102479.69;1815641;78;21750;-79
2022/01/23 03:10:26;;;;;;;12.45;5.40;;;;;;;1.42;68.22;102476.95;1816522;78;21776;-79
2022/01/23 03:13:11;;;;;;;11.55;5.37;;;;;;;1.41;68.21;102482.89;1816435;78;21534;-78
2022/01/23 03:32:20;;;;;;;13.08;5.90;;;;;;;1.49;68.30;102484.11;1816837;78;21083;-78
2022/01/23 03:34:00;;;;;;;11.53;5.47;;;;;;;1.52;68.36;102477.91;1766876;78;21518;-78
2022/01/23 03:36:27;;;;;;;14.35;6.33;;;;;;;1.54;68.40;102472.47;1816869;78;21775;-78
2022/01/23 03:38:54;;;;;;;10.13;5.03;;;;;;;1.55;68.28;102462.98;1816912;78;21097;-78
2022/01/23 03:41:20;;;;;;;13.58;6.10;;;;;;;1.54;68.31;102460.79;1816908;78;21124;-78
2022/01/23 03:43:47;;;;;;;11.85;6.28;;;;;;;1.55;68.30;102466.88;1816313;78;21190;-78
2022/01/23 03:51:11;;;;;;;14.28;6.20;;;;;;;1.55;68.36;102465.59;1816441;78;21089;-77
2022/01/23 03:53:38;;;;;;;12.73;5.67;;;;;;;1.56;68.46;102472.61;1816663;78;21022;-77
2022/01/23 03:56:05;;;;;;;12.03;5.67;;;;;;;1.56;68.47;102472.61;1816483;77;21219;-78
2022/01/23 03:58:33;;;;;;;10.35;5.37;;;;;;;1.57;68.50;102470.92;1816596;77;21018;-78
2022/01/23 04:00:59;;;;;;;13.32;6.08;;;;;;;1.58;68.58;102474.02;1816614;78;21730;-78
2022/01/23 04:03:26;;;;;;;11.93;5.87;;;;;;;1.57;68.63;102473.11;1816704;77;21088;-78
2022/01/23 04:05:53;;;;;;;12.37;6.17;;;;;;;1.59;68.63;102479.35;1816585;78;21057;-78
2022/01/23 04:08:20;;;;;;;13.38;5.75;;;;;;;1.57;68.56;102474.41;1816548;78;21060;-78
2022/01/23 04:10:47;;;;;;;11.93;6.30;;;;;;;1.58;68.76;102472.72;1816830;78;21069;-79
2022/01/23 04:13:21;;;;;;;12.68;5.85;;;;;;;1.61;68.74;102470.02;1816752;77;22495;-79
2022/01/23 04:15:49;;;;;;;12.90;6.05;;;;;;;1.59;68.64;102475.45;1816214;78;21057;-79
2022/01/23 04:21:04;;;;;;;13.45;6.17;;;;;;;1.56;68.78;102477.80;1816740;78;21042;-77
2022/01/23 04:31:47;;;;;;;17.42;6.83;;;;;;;1.57;68.78;102500.77;1816251;78;21097;-79
2022/01/23 04:34:18;;;;;;;14.15;6.00;;;;;;;1.57;68.75;102504.27;1816474;78;21057;-78
2022/01/23 05:06:41;;;;;;;11.73;5.47;;;;;;;1.59;68.90;102526.47;1816436;78;21818;-78
2022/01/23 05:09:01;;;;;;;12.80;5.70;;;;;;;1.57;68.79;102531.52;1816220;78;21045;-78
2022/01/23 05:11:27;;;;;;;19.55;6.15;;;;;;;1.59;68.88;102526.07;1816458;78;21050;-78
2022/01/23 05:13:54;;;;;;;12.68;6.22;;;;;;;1.64;68.96;102526.11;1816632;78;21087;-79
2022/01/23 05:16:21;;;;;;;10.78;6.20;;;;;;;1.67;69.08;102530.64;1816831;78;21590;-79
2022/01/23 05:18:48;;;;;;;16.32;5.97;;;;;;;1.68;69.12;102532.48;1816742;78;22050;-78
2022/01/23 05:23:50;;;;;;;16.90;6.75;;;;;;;1.70;69.14;102541.31;1816604;78;21037;-76
2022/01/23 05:26:16;;;;;;;11.80;6.20;;;;;;;1.68;69.14;102540.27;1816964;78;21062;-76
2022/01/23 05:28:43;;;;;;;12.25;5.70;;;;;;;1.66;69.14;102549.22;1816666;78;21146;-79
2022/01/23 05:31:10;;;;;;;17.90;6.70;;;;;;;1.67;69.24;102552.34;1816451;78;21712;-78
2022/01/23 05:33:36;;;;;;;17.55;7.83;;;;;;;1.65;69.25;102547.41;1816291;77;21226;-78
2022/01/23 05:36:05;;;;;;;18.00;9.15;;;;;;;1.62;69.17;102547.52;1816446;77;21515;-78
2022/01/23 05:38:31;;;;;;;23.87;9.75;;;;;;;1.61;69.24;102549.17;1816514;78;21169;-77
2022/01/23 05:41:01;;;;;;;21.73;9.43;;;;;;;1.61;69.33;102560.86;1816657;78;21563;-80
2022/01/23 05:43:30;;;;;;;19.77;9.68;;;;;;;1.60;69.38;102564.25;1816515;78;22522;-80
2022/01/23 05:45:57;;;;;;;15.72;9.05;;;;;;;1.59;69.33;102560.20;1816637;78;21354;-83
2022/01/23 05:48:24;;;;;;;18.75;9.00;;;;;;;1.59;69.40;102559.81;1817220;78;20975;-83
2022/01/23 05:50:51;;;;;;;19.20;8.50;;;;;;;1.61;69.39;102560.86;1816995;77;21158;-83
2022/01/23 05:53:18;;;;;;;18.07;8.18;;;;;;;1.60;69.42;102553.86;1816619;78;21018;-82
2022/01/23 05:55:44;;;;;;;18.20;8.98;;;;;;;1.59;69.39;102571.49;1816746;78;21761;-84
2022/01/23 05:58:11;;;;;;;16.48;7.65;;;;;;;1.57;69.49;102566.95;1816565;78;21634;-80
2022/01/23 06:00:38;;;;;;;19.50;8.40;;;;;;;1.58;69.58;102561.90;1816485;77;21302;-81
2022/01/23 06:03:04;;;;;;;18.32;7.60;;;;;;;1.58;69.55;102565.80;1816552;78;21042;-81
2022/01/23 06:05:31;;;;;;;13.58;6.87;;;;;;;1.57;69.62;102559.16;1816963;78;21047;-82
2022/01/23 06:08:01;;;;;;;20.77;8.28;;;;;;;1.56;69.72;102564.75;1816768;78;21923;-83
2022/01/23 06:10:28;;;;;;;18.07;8.45;;;;;;;1.58;69.66;102577.84;1816452;78;21077;-82
2022/01/23 06:12:54;;;;;;;25.80;9.63;;;;;;;1.58;69.72;102576.17;1816655;77;21045;-82
2022/01/23 06:15:21;;;;;;;17.85;8.95;;;;;;;1.59;69.68;102578.38;1816940;77;21539;-78
2022/01/23 06:17:48;;;;;;;20.72;8.58;;;;;;;1.59;69.74;102583.56;1816995;78;21072;-83
2022/01/23 06:20:15;;;;;;;20.37;8.98;;;;;;;1.61;69.82;102588.51;1803491;78;21804;-83
2022/01/23 06:22:43;;;;;;;18.60;8.85;;;;;;;1.63;69.79;102590.86;1794490;79;21252;-82
2022/01/23 06:25:12;;;;;;;18.25;8.53;;;;;;;1.62;69.85;102592.55;1794855;79;21490;-80
2022/01/23 06:27:38;;;;;;;16.55;7.70;;;;;;;1.63;69.91;102589.55;1792259;78;21074;-83
2022/01/23 06:30:06;;;;;;;15.28;7.95;;;;;;;1.64;69.87;102586.20;1725230;81;21150;-82
2022/01/23 06:32:33;;;;;;;17.48;7.62;;;;;;;1.61;69.82;102592.41;1758790;81;21766;-84
2022/01/23 06:35:03;;;;;;;16.73;8.08;;;;;;;1.61;69.86;102606.67;1732165;82;21107;-73
2022/01/23 06:37:32;;;;;;;21.15;9.28;;;;;;;1.60;69.88;102617.85;1731541;81;21303;-73
2022/01/23 06:40:00;;;;;;;22.45;9.75;;;;;;;1.59;69.94;102628.98;1739660;81;21120;-73
2022/01/23 06:42:27;;;;;;;19.45;9.20;;;;;;;1.59;69.94;102619.52;1731722;81;21127;-73
2022/01/23 06:44:53;;;;;;;24.60;10.45;;;;;;;1.58;69.94;102627.15;1759179;80;21759;-72
2022/01/23 06:47:20;;;;;;;23.30;9.33;;;;;;;1.58;69.90;102623.26;1758908;81;21040;-73
2022/01/23 06:49:49;;;;;;;19.00;9.58;;;;;;;1.58;69.99;102622.89;1763218;80;21081;-72
2022/01/23 06:52:18;;;;;;;23.05;9.55;;;;;;;1.60;69.99;102623.05;1764812;80;22246;-73
2022/01/23 06:54:44;;;;;;;22.07;9.83;;;;;;;1.59;70.04;102628.98;1765177;80;21155;-84
2022/01/23 06:57:11;;;;;;;22.85;10.93;;;;;;;1.60;70.18;102620.05;1764853;81;21908;-82
2022/01/23 06:59:38;;;;;;;21.85;10.53;;;;;;;1.62;70.27;102621.09;1765128;80;21068;-73
2022/01/23 07:02:04;;;;;;;23.07;10.72;;;;;;;1.63;70.10;102620.70;1764943;81;21061;-73
2022/01/23 07:04:31;;;;;;;22.42;10.98;;;;;;;1.62;70.09;102619.80;1765533;81;21125;-81
2022/01/23 07:06:58;;;;;;;27.42;11.20;;;;;;;1.60;70.10;102609.67;1765680;81;21730;-81
2022/01/23 07:09:25;;;;;;;25.35;11.73;;;;;;;1.60;70.20;102608.77;1765710;80;21740;-82
2022/01/23 07:11:54;;;;;;;31.30;14.90;;;;;;;1.63;70.23;102612.92;1736438;81;21061;-81
2022/01/23 07:14:21;;;;;;;38.42;19.12;;;;;;;1.63;70.20;102612.52;1765312;81;21128;-81
2022/01/23 07:16:48;;;;;;;54.10;25.48;;;;;;;1.64;70.23;102606.58;1764074;81;22304;-80
2022/01/23 07:19:15;;;;;;;54.90;28.55;;;;;;;1.68;70.26;102603.88;1765168;80;21865;-73
2022/01/23 07:21:42;;;;;;;46.58;25.80;;;;;;;1.69;70.22;102611.80;1762567;81;21832;-73
2022/01/23 07:24:09;;;;;;;72.82;36.23;;;;;;;1.73;70.20;102619.48;1765388;80;22236;-73
2022/01/23 07:26:36;;;;;;;63.35;32.40;;;;;;;1.78;70.18;102627.67;1765195;81;21045;-73
2022/01/23 07:29:04;;;;;;;42.78;22.87;;;;;;;1.80;70.10;102628.72;1765334;81;21030;-73
2022/01/23 07:31:44;;;;;;;37.25;19.32;;;;;;;1.81;70.08;102625.38;1764981;80;21116;-73
2022/01/23 07:34:06;;;;;;;34.58;18.70;;;;;;;1.81;70.00;102627.97;1704719;82;21840;-73
2022/01/23 07:36:33;;;;;;;;;;;;;;;1.81;70.04;102630.56;1681889;84;21633;-73
2022/01/23 07:39:01;;;;;;;52.75;26.65;;;;;;;1.79;69.89;102630.81;1736280;81;21039;-73
2022/01/23 07:41:28;;;;;;;57.70;29.32;;;;;;;1.77;69.92;102631.97;1705213;82;21088;-73
2022/01/23 07:44:04;;;;;;;46.48;22.55;;;;;;;1.78;69.95;102633.77;1678195;84;21086;-73
2022/01/23 07:46:31;;;;;;;42.58;21.05;;;;;;;1.77;69.99;102632.36;1751758;81;21895;-73
2022/01/23 07:49:01;;;;;;;45.67;21.68;;;;;;;1.82;70.10;102633.66;1752123;81;21120;-73
2022/01/23 07:51:27;;;;;;;33.70;17.87;;;;;;;1.88;70.15;102640.34;1752548;81;21081;-73
2022/01/23 07:53:54;;;;;;;31.12;16.12;;;;;;;1.96;70.17;102650.52;1752473;81;21085;-73
2022/01/23 07:56:21;;;;;;;31.68;16.75;;;;;;;2.07;70.24;102648.50;1752516;81;21073;-74
2022/01/23 07:58:47;;;;;;;32.70;17.42;;;;;;;2.19;70.20;102653.47;1752771;81;21794;-75
2022/01/23 08:01:14;;;;;;;45.98;21.12;;;;;;;2.29;70.15;102656.13;1752801;81;21657;-75
2022/01/23 08:03:40;;;;;;;41.33;20.30;;;;;;;2.31;70.01;102640.69;1752679;81;21085;-75
2022/01/23 08:06:11;;;;;;;40.35;20.55;;;;;;;2.46;69.98;102664.13;1752285;81;21073;-75
2022/01/23 08:08:36;;;;;;;32.23;17.60;;;;;;;2.53;69.93;102668.16;1752818;80;21544;-81
2022/01/23 08:11:02;;;;;;;28.57;14.55;;;;;;;2.59;69.88;102666.48;1766749;80;21736;-75
2022/01/23 08:13:29;;;;;;;27.25;12.85;;;;;;;2.62;69.75;102671.56;1764788;80;21076;-74
2022/01/23 08:15:55;;;;;;;29.50;12.53;;;;;;;2.64;69.69;102664.81;1740429;81;21066;-76
2022/01/23 08:18:22;;;;;;;29.87;14.87;;;;;;;2.70;69.77;102664.44;1759504;81;21044;-74
2022/01/23 08:20:49;;;;;;;37.80;18.35;;;;;;;2.79;69.69;102665.24;1737914;80;21671;-82
2022/01/23 08:23:15;;;;;;;33.42;16.15;;;;;;;2.84;69.46;102673.06;1737785;81;23099;-84
2022/01/23 08:25:42;;;;;;;31.07;16.27;;;;;;;2.88;69.50;102671.25;1752084;80;21548;-82
2022/01/23 08:28:09;;;;;;;34.38;16.25;;;;;;;2.95;69.44;102667.87;1776410;80;21052;-81
2022/01/23 08:30:36;;;;;;;34.38;16.42;;;;;;;3.01;69.32;102674.53;1765440;79;21573;-82
2022/01/23 08:33:02;;;;;;;27.10;14.40;;;;;;;3.11;69.38;102673.63;1761562;80;21101;-81
2022/01/23 08:35:29;;;;;;;26.45;14.63;;;;;;;3.18;69.13;102672.48;1775388;80;21740;-81
2022/01/23 08:37:56;;;;;;;23.27;12.65;;;;;;;3.20;69.03;102674.81;1774654;80;21059;-82
2022/01/23 08:40:35;;;;;;;43.40;21.48;;;;;;;3.26;68.93;102682.73;1743406;81;21477;-82
2022/01/23 08:42:52;;;;;;;40.60;18.98;;;;;;;3.32;68.83;102683.66;1732315;82;21084;-82
2022/01/23 08:45:19;;;;;;;33.30;18.82;;;;;;;3.38;68.57;102688.10;1761451;78;21596;-82
2022/01/23 08:47:47;;;;;;;38.30;19.80;;;;;;;3.39;68.37;102696.81;1811834;78;21820;-82
2022/01/23 08:50:14;;;;;;;49.50;27.87;;;;;;;3.42;68.59;102688.88;1737415;80;21074;-81
2022/01/23 08:52:41;;;;;;;51.42;27.13;;;;;;;3.53;68.49;102700.21;1778033;79;21102;-82
2022/01/23 08:55:08;;;;;;;41.98;21.00;;;;;;;3.64;68.56;102703.33;1756607;81;21103;-82
2022/01/23 08:57:35;;;;;;;41.37;23.42;;;;;;;3.78;68.49;102707.48;1761682;80;21718;-81
2022/01/23 09:00:05;;;;;;;41.45;22.80;;;;;;;3.87;68.37;102715.67;1787098;79;21732;-82
2022/01/23 09:02:31;;;;;;;54.15;29.72;;;;;;;3.97;68.14;102710.83;1786821;79;21082;-83
2022/01/23 09:05:00;;;;;;;59.58;36.10;;;;;;;4.01;67.97;102702.88;1787076;80;21086;-81
2022/01/23 09:07:27;;;;;;;40.67;23.40;;;;;;;4.06;67.72;102703.78;1787019;79;21168;-74
2022/01/23 09:10:01;;;;;;;48.73;26.10;;;;;;;4.03;67.43;102698.30;1772763;79;21789;-75
2022/01/23 09:14:55;;;;;;;48.52;29.48;;;;;;;4.05;67.37;102699.73;1778073;80;21069;-74
2022/01/23 09:17:22;;;;;;;58.38;35.03;;;;;;;4.04;67.22;102693.63;1777655;80;21049;-75
2022/01/23 09:19:48;;;;;;;47.05;27.27;;;;;;;4.00;67.12;102704.58;1778058;80;21081;-74
2022/01/23 09:22:15;;;;;;;44.93;26.93;;;;;;;3.98;67.06;102720.48;1777962;80;21049;-76
2022/01/23 09:24:42;;;;;;;33.33;19.05;;;;;;;4.00;67.23;102732.34;1777891;80;21733;-75
2022/01/23 09:27:18;;;;;;;20.68;11.22;;;;;;;4.03;67.21;102729.57;1809484;78;21387;-87
2022/01/23 09:29:41;;;;;;;21.65;12.25;;;;;;;4.06;67.17;102724.63;1768504;81;21081;-76
2022/01/23 09:32:11;;;;;;;20.55;11.55;;;;;;;4.05;67.00;102716.30;1779897;80;21050;-76
2022/01/23 09:34:38;;;;;;;17.00;11.08;;;;;;;4.06;66.96;102721.11;1779470;80;21523;-76
2022/01/23 09:37:07;;;;;;;19.23;10.70;;;;;;;4.08;67.05;102723.45;1778001;80;21729;-84
2022/01/23 09:39:37;;;;;;;19.12;12.10;;;;;;;4.16;67.10;102722.78;1778314;80;21057;-82
2022/01/23 09:42:23;;;;;;;23.55;13.68;;;;;;;4.25;67.15;102716.62;1778385;80;21183;-81
2022/01/23 09:44:57;;;;;;;25.70;14.83;;;;;;;4.38;66.99;102719.84;1777454;80;21656;-80
2022/01/23 09:47:24;;;;;;;25.15;13.62;;;;;;;4.45;66.84;102719.97;1765653;81;21607;-82
2022/01/23 09:49:52;;;;;;;27.87;15.58;;;;;;;4.50;66.56;102718.63;1791007;80;21750;-82
2022/01/23 09:52:19;;;;;;;26.50;14.55;;;;;;;4.56;66.55;102726.97;1791049;80;21500;-81
2022/01/23 09:54:56;;;;;;;30.37;14.35;;;;;;;4.61;66.61;102736.05;1796505;78;21073;-79
2022/01/23 09:57:15;;;;;;;24.87;13.60;;;;;;;4.72;66.49;102730.80;1797150;78;21075;-79
2022/01/23 09:59:42;;;;;;;25.37;12.93;;;;;;;4.77;66.36;102727.78;1797373;79;21051;-79
2022/01/23 10:02:09;;;;;;;24.37;13.25;;;;;;;4.84;66.37;102733.08;1745425;78;21918;-83
2022/01/23 10:04:35;;;;;;;23.62;12.45;;;;;;;4.94;66.37;102731.73;1817203;78;21100;-86
2022/01/23 10:07:05;;;;;;;31.42;15.58;;;;;;;5.02;66.35;102728.42;1807090;78;21069;-84
2022/01/23 10:09:32;;;;;;;28.55;14.50;;;;;;;5.14;66.32;102728.07;1809693;78;21147;-85
2022/01/23 10:11:58;;;;;;;37.45;18.15;;;;;;;5.22;66.25;102730.91;1797974;78;21707;-84
2022/01/23 10:14:25;;;;;;;38.53;18.50;;;;;;;5.31;66.20;102731.10;1802035;78;22405;-83
2022/01/23 10:16:52;;;;;;;32.98;16.35;;;;;;;5.34;65.96;102727.44;1817213;78;21056;-84
2022/01/23 10:19:19;;;;;;;18.23;11.03;;;;;;;5.39;65.86;102731.33;1805685;78;21016;-84
2022/01/23 10:21:47;;;;;;;23.65;11.68;;;;;;;5.39;65.67;102729.61;1797436;78;21099;-84
2022/01/23 10:24:13;;;;;;;22.50;10.93;;;;;;;5.34;65.45;102731.35;1813982;78;21087;-83
2022/01/23 10:26:53;;;;;;;17.17;10.53;;;;;;;5.26;65.35;102732.97;1802963;78;21727;-83
2022/01/23 10:29:26;;;;;;;15.65;9.85;;;;;;;5.18;65.17;102739.30;1792491;78;21145;-84
2022/01/23 10:32:10;;;;;;;20.88;10.98;;;;;;;5.06;65.16;102731.78;1817738;78;21068;-83
2022/01/23 10:34:59;;;;;;;46.10;22.10;;;;;;;5.00;65.36;102740.05;1817389;78;21208;-83
2022/01/23 10:37:40;;;;;;;43.05;21.55;;;;;;;4.98;65.33;102747.25;1816828;78;21106;-83
2022/01/23 10:40:26;;;;;;;27.87;14.68;;;;;;;5.01;65.49;102752.32;1816768;78;22291;-84
2022/01/23 10:46:37;;;;;;;25.52;15.15;;;;;;;5.02;65.43;102750.61;1817181;78;21059;-83
2022/01/23 10:48:48;;;;;;;22.52;14.50;;;;;;;5.15;65.58;102768.16;1788581;79;21238;-83
2022/01/23 10:51:30;;;;;;;22.90;13.80;;;;;;;5.12;65.32;102763.59;1809053;79;21612;-84
2022/01/23 10:54:17;;;;;;;24.47;12.85;;;;;;;4.99;65.12;102759.13;1809223;79;21741;-84
2022/01/23 10:56:59;;;;;;;22.00;12.28;;;;;;;4.92;65.29;102765.00;1795183;78;21079;-83
2022/01/23 10:59:41;;;;;;;20.30;12.28;;;;;;;5.00;65.59;102759.62;1775324;80;21059;-84
2022/01/23 11:02:14;;;;;;;19.82;11.48;;;;;;;5.15;65.59;102766.45;1775639;80;21071;-84
2022/01/23 11:05:04;;;;;;;25.27;12.95;;;;;;;5.24;65.61;102764.58;1773742;79;21039;-83
2022/01/23 11:07:33;;;;;;;23.65;13.93;;;;;;;5.32;65.48;102760.36;1793954;79;21805;-83
2022/01/23 11:10:07;;;;;;;34.18;18.23;;;;;;;5.41;65.38;102762.39;1808880;79;21711;-83
2022/01/23 11:18:01;;;;;;;27.17;16.85;;;;;;;5.68;65.19;102768.83;1795439;78;21062;-83
2022/01/23 11:20:48;;;;;;;32.85;17.73;;;;;;;5.79;65.14;102769.66;1775739;80;22625;-83
2022/01/23 11:23:27;;;;;;;29.32;18.25;;;;;;;5.89;64.89;102771.27;1775065;80;21075;-82
2022/01/23 11:26:01;;;;;;;33.13;20.00;;;;;;;5.91;64.75;102761.47;1774589;80;21080;-83
2022/01/23 11:28:31;;;;;;;48.25;26.02;;;;;;;5.95;64.72;102759.97;1775307;80;21004;-83
2022/01/23 11:30:58;;;;;;;54.60;24.65;;;;;;;5.93;64.48;102757.64;1794964;78;21067;-83
2022/01/23 11:33:25;;;;;;;30.70;19.10;;;;;;;5.94;64.57;102766.00;1795212;79;21736;-83
2022/01/23 11:35:52;;;;;;;29.75;17.00;;;;;;;5.96;64.66;102768.38;1808894;79;21074;-83
2022/01/23 11:38:21;;;;;;;34.55;20.45;;;;;;;5.97;64.57;102775.03;1794942;78;21047;-83
2022/01/23 11:54:49;;;;;;;29.60;16.95;;;;;;;6.02;64.34;102785.82;1786746;80;21365;-83
2022/01/23 11:57:43;;;;;;;26.93;15.32;;;;;;;6.05;64.25;102782.55;1758916;80;21062;-83
2022/01/23 12:00:28;;;;;;;31.23;19.12;;;;;;;6.01;64.08;102788.84;1792177;79;21845;-83
2022/01/23 12:03:18;;;;;;;26.62;17.00;;;;;;;5.95;64.25;102791.33;1759309;80;21067;-83
2022/01/23 12:05:49;;;;;;;30.02;17.50;;;;;;;5.89;64.09;102789.16;1792271;80;21057;-83
2022/01/23 12:08:32;;;;;;;33.60;20.12;;;;;;;5.79;64.03;102787.95;1774973;80;21587;-83
2022/01/23 12:19:20;;;;;;;29.98;18.00;;;;;;;5.54;64.21;102787.77;1775036;80;21066;-83
2022/01/23 12:21:48;;;;;;;32.65;19.48;;;;;;;5.51;64.48;102789.72;1759288;80;21071;-83
2022/01/23 12:24:15;;;;;;;33.42;19.73;;;;;;;5.62;64.70;102787.55;1792259;79;21081;-83
2022/01/23 12:26:46;;;;;;;37.83;20.17;;;;;;;5.75;64.83;102792.03;1775134;80;21782;-83
2022/01/23 12:29:26;;;;;;;34.10;20.08;;;;;;;5.84;64.71;102797.06;1759130;80;21038;-83
2022/01/23 12:32:26;;;;;;;35.95;18.65;;;;;;;5.87;64.63;102790.75;1764862;79;21059;-84
2022/01/23 12:34:54;;;;;;;34.88;18.55;;;;;;;5.89;64.68;102797.00;1761479;80;21132;-83
2022/01/23 12:37:20;;;;;;;29.30;17.80;;;;;;;6.00;64.79;102800.48;1759750;80;21074;-83
2022/01/23 12:40:07;;;;;;;27.90;16.90;;;;;;;5.99;64.54;102803.50;1782886;80;21811;-82
2022/01/23 12:43:15;;;;;;;29.35;16.30;;;;;;;5.96;64.57;102801.05;1688214;84;21080;-84
2022/01/23 12:46:05;;;;;;;29.02;16.97;;;;;;;5.88;64.61;102789.97;1701733;82;21097;-83
2022/01/23 12:48:39;;;;;;;35.38;19.42;;;;;;;5.96;64.63;102807.58;1759509;81;21213;-83
2022/01/23 12:51:17;;;;;;;31.37;18.10;;;;;;;5.90;64.57;102807.98;1758289;81;21163;-83
2022/01/23 12:53:49;;;;;;;28.38;16.85;;;;;;;5.85;64.53;102802.80;1756174;81;21901;-83
2022/01/23 12:56:22;;;;;;;29.77;17.07;;;;;;;5.71;64.73;102805.66;1724361;81;21093;-84
2022/01/23 12:59:07;;;;;;;27.35;15.90;;;;;;;5.55;64.97;102785.25;1755435;80;21152;-83
2022/01/23 13:01:29;;;;;;;33.92;17.92;;;;;;;5.67;65.12;102798.75;1742935;82;21089;-83
2022/01/23 13:03:58;;;;;;;30.30;17.48;;;;;;;5.63;65.23;102801.52;1719509;81;21215;-83
2022/01/23 13:06:50;;;;;;;31.80;16.77;;;;;;;5.59;65.16;102798.16;1718185;83;22489;-83
2022/01/23 13:09:37;;;;;;;30.50;16.95;;;;;;;5.53;65.17;102801.20;1686556;84;21129;-83
2022/01/23 13:31:57;;;;;;;33.15;18.77;;;;;;;5.09;65.71;102805.13;1782682;80;21654;-77
2022/01/23 13:34:29;;;;;;;26.65;17.75;;;;;;;5.04;65.95;102799.52;1758406;80;22436;-77
2022/01/23 13:37:14;;;;;;;33.53;18.87;;;;;;;4.99;66.11;102802.55;1758384;80;21074;-77
2022/01/23 13:39:57;;;;;;;30.65;17.27;;;;;;;4.93;66.25;102796.85;1802124;78;21033;-78
2022/01/23 13:42:46;;;;;;;26.87;15.10;;;;;;;4.90;66.45;102801.81;1782010;80;21041;-78
2022/01/23 13:48:41;;;;;;;34.05;17.62;;;;;;;4.73;66.76;102811.81;1730935;82;22002;-79
2022/01/23 13:59:48;;;;;;;29.98;17.10;;;;;;;4.38;67.50;102801.98;1747640;82;21363;-78
2022/01/23 14:02:22;;;;;;;33.23;19.00;;;;;;;4.35;67.77;102799.11;1729218;80;21771;-77
2022/01/23 14:05:17;;;;;;;34.70;18.23;;;;;;;4.34;67.93;102807.73;1788730;80;21662;-77
2022/01/23 14:07:49;;;;;;;34.43;19.32;;;;;;;4.30;68.01;102808.27;1761203;79;21073;-78
2022/01/23 14:10:29;;;;;;;33.28;18.55;;;;;;;4.26;68.21;102812.67;1748277;82;21650;-78
2022/01/23 14:13:07;;;;;;;32.33;18.70;;;;;;;4.25;68.37;102806.56;1756700;80;21128;-78
2022/01/23 14:15:33;;;;;;;36.15;18.45;;;;;;;4.25;68.53;102802.65;1783077;80;21736;-78
2022/01/23 14:18:11;;;;;;;32.03;19.30;;;;;;;4.24;68.62;102809.03;1731389;82;21064;-79
2022/01/23 14:20:41;;;;;;;33.75;19.50;;;;;;;4.22;68.71;102807.62;1761885;80;21139;-78
2022/01/23 14:23:15;;;;;;;36.03;20.95;;;;;;;4.20;68.76;102817.39;1761540;80;21473;-77
2022/01/23 14:26:07;;;;;;;36.68;20.02;;;;;;;4.18;68.92;102816.34;1761713;80;21109;-77
2022/01/23 14:28:46;;;;;;;42.40;23.00;;;;;;;4.17;69.00;102821.06;1761787;80;21725;-77
2022/01/23 14:31:17;;;;;;;47.33;24.23;;;;;;;4.15;69.12;102821.29;1761844;81;21049;-78
2022/01/23 14:33:40;;;;;;;41.20;24.43;;;;;;;4.09;69.22;102822.63;1748183;81;21100;-77
2022/01/23 14:36:22;;;;;;;47.88;27.05;;;;;;;4.06;69.35;102820.14;1729874;81;21124;-77
2022/01/23 14:39:01;;;;;;;61.37;34.58;;;;;;;4.02;69.46;102821.98;1788820;80;21057;-77
2022/01/23 14:41:33;;;;;;;56.85;32.10;;;;;;;4.00;69.68;102819.23;1731593;81;21719;-78
2022/01/23 14:43:59;;;;;;;54.95;31.82;;;;;;;4.00;69.77;102821.84;1783027;80;21100;-77
2022/01/23 14:46:26;;;;;;;58.23;32.38;;;;;;;3.99;69.88;102820.41;1731441;81;21141;-78
2022/01/23 14:48:59;;;;;;;53.25;30.55;;;;;;;3.95;69.98;102821.83;1770835;80;21201;-77
2022/01/23 14:51:24;;;;;;;46.53;26.45;;;;;;;3.92;70.11;102828.08;1786909;79;21674;-79
2022/01/23 14:53:52;;;;;;;45.63;26.00;;;;;;;3.84;70.26;102820.91;1724314;81;21138;-79
2022/01/23 14:56:20;;;;;;;49.58;28.75;;;;;;;3.83;70.45;102819.47;1770623;80;21038;-78
2022/01/23 14:58:47;;;;;;;50.03;27.05;;;;;;;3.77;70.52;102821.16;1770621;80;21113;-79
2022/01/23 15:01:15;;;;;;;49.23;27.77;;;;;;;3.70;70.58;102820.14;1765737;80;21574;-79